Time;durP1;ratioP1;P1;durP2;ratioP2;P2;SDS_P1;SDS_P2;PMS_P1;PMS_P2;Temp;Humidity;BMP_temperature;BMP_pressure;BME280_temperature;BME280_humidity;BME280_pressure;Samples;Min_cycle;Max_cycle;Signal;HPM_P1;HPM_P2
2023/05/20 00:02:05;;;;;;;10.03;3.50;;;;;;;12.47;63.58;102182.16;5262408;28;20412;-69
2023/05/20 00:04:36;;;;;;;8.20;3.80;;;;;;;12.52;64.44;102183.03;5262881;28;20487;-68
2023/05/20 00:07:08;;;;;;;5.67;3.33;;;;;;;12.44;65.56;102173.44;5261303;28;20700;-68
2023/05/20 00:09:39;;;;;;;7.53;3.13;;;;;;;12.28;65.22;102169.91;5262581;28;20495;-68
2023/05/20 00:12:10;;;;;;;8.87;3.00;;;;;;;12.33;65.62;102169.06;5262333;28;20512;-68
2023/05/20 00:14:42;;;;;;;7.80;3.40;;;;;;;12.30;66.91;102169.06;5262566;28;20072;-68
2023/05/20 00:17:13;;;;;;;8.93;3.50;;;;;;;12.12;66.64;102166.38;5262531;28;20032;-68
2023/05/20 00:19:45;;;;;;;9.43;3.50;;;;;;;12.11;66.95;102177.72;5260783;28;20097;-69
2023/05/20 00:22:16;;;;;;;9.67;3.30;;;;;;;12.04;67.55;102184.66;5277941;28;20456;-68
2023/05/20 00:24:47;;;;;;;8.67;3.40;;;;;;;12.02;68.55;102181.16;5262181;28;20048;-68
2023/05/20 00:27:19;;;;;;;8.73;3.60;;;;;;;11.97;68.72;102185.50;5261134;28;20029;-68
2023/05/20 00:29:50;;;;;;;7.47;3.63;;;;;;;11.88;69.12;102182.81;5262042;28;20037;-68
2023/05/20 00:32:22;;;;;;;9.73;4.00;;;;;;;11.89;69.50;102182.81;5261017;28;20033;-68
2023/05/20 00:34:57;;;;;;;10.40;3.80;;;;;;;11.85;70.13;102176.72;5262626;28;20044;-68
2023/05/20 00:37:29;;;;;;;7.80;3.45;;;;;;;11.68;70.41;102175.75;5262369;28;20405;-66
2023/05/20 00:40:00;;;;;;;10.27;3.90;;;;;;;11.66;71.04;102165.31;5264127;28;20078;-68
2023/05/20 00:42:32;;;;;;;8.83;3.40;;;;;;;11.63;71.80;102173.13;5266366;28;20052;-68
2023/05/20 00:45:03;;;;;;;11.80;3.80;;;;;;;11.60;72.12;102172.25;5266434;28;20036;-67
2023/05/20 00:47:36;;;;;;;8.53;3.33;;;;;;;11.65;72.11;102166.16;5266349;28;20025;-68
2023/05/20 00:50:09;;;;;;;11.10;4.20;;;;;;;11.68;72.33;102174.03;5265880;28;20354;-69
2023/05/20 00:52:43;;;;;;;9.57;3.80;;;;;;;11.74;72.31;102167.09;5266285;28;20033;-68
2023/05/20 00:55:15;;;;;;;10.35;3.53;;;;;;;11.50;72.62;102173.94;5264914;28;20430;-69
2023/05/20 00:57:48;;;;;;;11.73;4.53;;;;;;;11.49;73.11;102166.97;5266094;28;20037;-69
2023/05/20 01:00:19;;;;;;;7.97;3.72;;;;;;;11.47;73.59;102164.34;5266367;28;20392;-69
2023/05/20 01:02:51;;;;;;;8.83;4.37;;;;;;;11.35;73.94;102159.06;5265650;28;20033;-68
2023/05/20 01:05:22;;;;;;;14.23;7.80;;;;;;;11.39;74.21;102170.38;5265974;28;20036;-68
2023/05/20 01:07:54;;;;;;;12.53;4.83;;;;;;;11.37;74.36;102159.94;5265725;28;20025;-68
2023/05/20 01:10:28;;;;;;;12.97;4.47;;;;;;;11.23;74.75;102167.66;5281344;28;20040;-69
2023/05/20 01:13:07;;;;;;;11.10;5.15;;;;;;;11.30;75.17;102168.56;5265794;28;20031;-68
2023/05/20 01:15:39;;;;;;;7.03;3.95;;;;;;;11.06;75.70;102164.97;5265874;28;20033;-68
2023/05/20 01:18:17;;;;;;;11.52;4.30;;;;;;;10.99;76.12;102163.16;5265788;28;20037;-67
2023/05/20 01:20:52;;;;;;;10.50;4.70;;;;;;;10.98;76.69;102158.81;5265669;28;20025;-69
2023/05/20 01:23:31;;;;;;;8.20;3.85;;;;;;;10.98;77.05;102157.91;5281139;28;20029;-69
2023/05/20 01:26:03;;;;;;;8.60;4.25;;;;;;;10.97;77.38;102158.81;5265641;28;20029;-68
2023/05/20 01:28:37;;;;;;;10.50;4.93;;;;;;;10.88;77.34;102155.25;5265552;28;20036;-69
2023/05/20 01:31:14;;;;;;;13.90;4.43;;;;;;;10.89;77.83;102157.00;5265619;28;20470;-68
2023/05/20 01:33:50;;;;;;;11.43;4.35;;;;;;;10.90;78.05;102152.63;5249183;28;20022;-69
2023/05/20 01:36:22;;;;;;;9.55;4.60;;;;;;;10.79;78.59;102149.97;5244036;28;20108;-68
2023/05/20 01:38:55;;;;;;;18.85;5.00;;;;;;;10.87;77.70;102153.50;5244190;28;20174;-68
2023/05/20 01:41:28;;;;;;;10.10;3.75;;;;;;;10.81;78.53;102145.63;5242868;28;20042;-69
2023/05/20 01:43:59;;;;;;;10.88;4.32;;;;;;;10.79;78.44;102154.28;5243120;28;20408;-68
2023/05/20 01:46:34;;;;;;;7.53;4.57;;;;;;;10.81;78.93;102142.16;5244596;28;20034;-68
2023/05/20 01:49:05;;;;;;;11.13;4.80;;;;;;;10.68;78.56;102142.03;5244255;28;20036;-67
2023/05/20 01:51:37;;;;;;;10.33;4.00;;;;;;;10.67;79.37;102145.50;5244123;28;20025;-69
2023/05/20 01:54:09;;;;;;;11.02;4.43;;;;;;;10.67;80.10;102139.41;5275666;28;20428;-69
2023/05/20 01:56:40;;;;;;;12.30;4.63;;;;;;;10.60;79.60;102143.72;5244075;28;20033;-68
2023/05/20 01:59:11;;;;;;;7.97;4.43;;;;;;;10.56;79.72;102139.31;5245161;28;20093;-68
2023/05/20 02:01:43;;;;;;;10.90;4.20;;;;;;;10.49;80.45;102135.78;5255537;28;20025;-70
2023/05/20 02:04:14;;;;;;;8.73;4.50;;;;;;;10.37;80.81;102131.34;5264581;28;20025;-69
2023/05/20 02:06:46;;;;;;;11.43;5.13;;;;;;;10.37;80.97;102138.28;5264330;28;20033;-70
2023/05/20 02:09:17;;;;;;;11.73;4.60;;;;;;;10.36;81.49;102140.00;5264544;28;20029;-69
2023/05/20 02:11:48;;;;;;;14.63;4.70;;;;;;;10.27;81.65;102131.19;5264598;28;20064;-68
2023/05/20 02:14:20;;;;;;;12.60;4.63;;;;;;;10.31;81.69;102139.06;5264631;28;20037;-68
2023/05/20 02:16:51;;;;;;;11.93;4.60;;;;;;;10.25;82.28;102140.72;5296848;28;20039;-69
2023/05/20 02:19:22;;;;;;;9.23;5.10;;;;;;;10.19;82.36;102137.22;5264234;28;20453;-67
2023/05/20 02:21:54;;;;;;;12.67;6.00;;;;;;;10.14;82.54;102138.00;5263050;28;20025;-67
2023/05/20 02:24:25;;;;;;;11.37;7.30;;;;;;;10.02;83.39;102131.81;5264175;28;20033;-68
2023/05/20 02:26:57;;;;;;;13.23;6.80;;;;;;;10.07;83.47;102131.84;5264759;28;20059;-69
2023/05/20 02:29:29;;;;;;;13.35;7.15;;;;;;;10.04;83.66;102127.47;5264453;28;20033;-68
2023/05/20 02:32:01;;;;;;;15.85;7.72;;;;;;;10.01;83.85;102127.47;5264269;28;20472;-69
2023/05/20 02:34:32;;;;;;;13.83;6.20;;;;;;;9.99;84.16;102123.09;5264375;28;20465;-69
2023/05/20 02:37:04;;;;;;;9.03;5.40;;;;;;;10.09;84.54;102124.91;5264258;28;20036;-69
2023/05/20 02:39:35;;;;;;;15.43;5.47;;;;;;;9.99;85.57;102115.28;5264250;28;20112;-68
2023/05/20 02:42:06;;;;;;;13.83;5.30;;;;;;;9.97;85.25;102124.81;5264445;28;20136;-68
2023/05/20 02:44:38;;;;;;;12.30;6.20;;;;;;;9.97;84.99;102124.81;5296226;28;20036;-68
2023/05/20 02:47:09;;;;;;;8.40;5.33;;;;;;;9.97;85.12;102130.03;5263756;28;20507;-69
2023/05/20 02:49:40;;;;;;;9.00;4.90;;;;;;;9.85;85.58;102138.53;5263779;28;20033;-69
2023/05/20 02:52:12;;;;;;;8.90;5.17;;;;;;;9.85;85.60;102125.53;5262719;28;20032;-69
2023/05/20 02:54:43;;;;;;;15.03;5.93;;;;;;;9.82;85.95;102126.38;5264010;28;20048;-67
2023/05/20 02:57:15;;;;;;;8.93;4.43;;;;;;;9.90;86.13;102125.56;5263891;28;20025;-69
2023/05/20 02:59:46;;;;;;;14.03;5.90;;;;;;;9.81;86.14;102123.75;5263995;28;20025;-69
2023/05/20 03:02:18;;;;;;;8.67;4.93;;;;;;;9.82;86.72;102121.16;5262929;28;20025;-67
2023/05/20 03:04:49;;;;;;;12.13;4.90;;;;;;;9.92;86.93;102116.03;5263643;28;20041;-68
2023/05/20 03:07:21;;;;;;;9.70;4.73;;;;;;;9.87;86.49;102123.84;5263910;28;20071;-68
2023/05/20 03:09:52;;;;;;;13.80;4.88;;;;;;;9.79;86.84;102115.91;5263577;28;20037;-68
2023/05/20 03:12:25;;;;;;;12.67;5.47;;;;;;;9.77;87.46;102127.16;5263592;28;20037;-67
2023/05/20 03:14:57;;;;;;;14.57;5.28;;;;;;;9.71;87.57;102121.88;5263697;28;20095;-68
2023/05/20 03:17:29;;;;;;;9.57;5.05;;;;;;;9.77;87.97;102119.34;5263426;28;20029;-68
2023/05/20 03:20:00;;;;;;;14.37;4.97;;;;;;;9.74;87.96;102121.91;5263001;28;20110;-68
2023/05/20 03:22:32;;;;;;;11.93;5.40;;;;;;;9.61;87.90;102120.88;5263354;28;20065;-68
2023/05/20 03:25:04;;;;;;;16.43;6.30;;;;;;;9.67;88.00;102119.22;5263227;28;20036;-69
2023/05/20 03:27:36;;;;;;;12.75;4.85;;;;;;;9.57;88.42;102121.72;5263314;28;20025;-68
2023/05/20 03:30:08;;;;;;;7.43;4.80;;;;;;;9.47;88.96;102119.00;5245338;28;20040;-69
2023/05/20 03:32:39;;;;;;;9.33;4.80;;;;;;;9.49;89.23;102127.69;5261882;28;20098;-68
2023/05/20 03:35:11;;;;;;;10.07;5.93;;;;;;;9.46;90.21;102126.78;5261847;28;20075;-68
2023/05/20 03:37:43;;;;;;;14.10;5.50;;;;;;;9.46;89.61;102130.25;5263094;28;20115;-68
2023/05/20 03:40:14;;;;;;;11.40;5.80;;;;;;;9.35;90.37;102125.75;5262588;28;20033;-69
2023/05/20 03:42:46;;;;;;;11.13;5.63;;;;;;;9.28;90.91;102117.00;5262951;28;20503;-68
2023/05/20 03:45:17;;;;;;;13.87;5.37;;;;;;;9.27;91.05;102123.03;5261576;28;20029;-67
2023/05/20 03:47:49;;;;;;;7.60;5.40;;;;;;;9.33;91.17;102125.75;5262612;28;20048;-68
2023/05/20 03:50:20;;;;;;;12.30;5.40;;;;;;;9.32;91.04;102118.78;5262329;28;20384;-68
2023/05/20 03:52:51;;;;;;;12.67;5.83;;;;;;;9.31;91.18;102123.09;5262557;28;20031;-67
2023/05/20 03:55:23;;;;;;;9.40;6.40;;;;;;;9.32;91.70;102118.78;5262540;28;20029;-68
2023/05/20 03:57:55;;;;;;;11.45;5.32;;;;;;;9.24;92.19;102123.00;5261184;28;20118;-67
2023/05/20 04:00:26;;;;;;;11.33;5.50;;;;;;;9.29;92.42;102119.63;5262519;28;20459;-67
2023/05/20 04:02:58;;;;;;;9.63;5.77;;;;;;;9.22;92.78;102114.31;5261185;28;20029;-69
2023/05/20 04:05:29;;;;;;;12.30;6.10;;;;;;;9.21;92.78;102115.16;5262048;28;20064;-68
2023/05/20 04:08:00;;;;;;;10.43;6.13;;;;;;;9.22;93.13;102119.50;5262395;28;20392;-68
2023/05/20 04:10:32;;;;;;;10.33;5.57;;;;;;;9.22;93.10;102124.72;5260962;28;20037;-69
2023/05/20 04:13:03;;;;;;;13.30;5.30;;;;;;;9.21;93.04;102120.34;5262448;28;20128;-68
2023/05/20 04:15:35;;;;;;;10.83;5.83;;;;;;;9.28;92.88;102119.59;5262054;28;20368;-68
2023/05/20 04:18:07;;;;;;;8.63;5.63;;;;;;;9.22;93.12;102125.56;5261028;28;20029;-68
2023/05/20 04:20:40;;;;;;;11.60;5.37;;;;;;;9.33;93.01;102123.13;5262049;28;20037;-69
2023/05/20 04:23:11;;;;;;;8.35;4.90;;;;;;;9.33;93.17;102127.47;5262065;28;20025;-68
2023/05/20 04:25:43;;;;;;;12.07;5.10;;;;;;;9.39;93.29;102125.81;5262209;28;20039;-68
2023/05/20 04:28:15;;;;;;;8.47;5.57;;;;;;;9.42;92.78;102128.47;5262165;28;20110;-67
2023/05/20 04:30:46;;;;;;;9.63;5.43;;;;;;;9.37;92.70;102122.34;5262193;28;20029;-68
2023/05/20 04:33:17;;;;;;;11.03;5.97;;;;;;;9.38;93.11;102126.66;5260725;28;20082;-68
2023/05/20 04:35:49;;;;;;;9.77;5.33;;;;;;;9.45;93.33;102125.00;5262152;28;20041;-69
2023/05/20 04:38:20;;;;;;;10.80;6.23;;;;;;;9.49;93.80;102122.47;5261875;28;20025;-67
2023/05/20 04:40:52;;;;;;;11.30;5.47;;;;;;;9.52;93.89;102120.78;5261919;28;20079;-69
2023/05/20 04:43:24;;;;;;;11.83;5.70;;;;;;;9.56;93.65;102123.44;5262149;28;20036;-68
2023/05/20 04:45:56;;;;;;;12.27;5.25;;;;;;;9.63;93.85;102120.06;5262016;28;20028;-68
2023/05/20 04:48:27;;;;;;;11.90;6.03;;;;;;;9.64;93.60;102120.94;5262066;28;20029;-70
2023/05/20 04:50:59;;;;;;;11.50;6.00;;;;;;;9.67;93.62;102127.03;5260186;28;20359;-68
2023/05/20 04:53:30;;;;;;;10.40;6.20;;;;;;;9.71;93.88;102127.09;5261996;28;20033;-68
2023/05/20 04:56:02;;;;;;;12.00;6.07;;;;;;;9.81;93.90;102129.81;5262257;28;20035;-69
2023/05/20 04:58:34;;;;;;;13.30;6.17;;;;;;;9.91;93.48;102127.34;5261941;28;20495;-68
2023/05/20 05:01:05;;;;;;;11.77;6.25;;;;;;;9.95;93.51;102126.50;5262063;28;20086;-69
2023/05/20 05:03:37;;;;;;;11.60;6.13;;;;;;;9.99;93.57;102121.34;5261750;28;20037;-69
2023/05/20 05:06:08;;;;;;;11.47;5.63;;;;;;;10.01;93.65;102122.25;5260913;28;20095;-68
2023/05/20 05:08:39;;;;;;;9.87;5.73;;;;;;;10.15;92.94;102119.78;5261533;28;20041;-67
2023/05/20 05:11:11;;;;;;;10.07;5.43;;;;;;;10.22;92.62;102119.00;5261783;28;20029;-67
2023/05/20 05:13:42;;;;;;;7.80;5.40;;;;;;;10.30;92.49;102113.84;5261488;28;20037;-68
2023/05/20 05:16:13;;;;;;;11.90;6.53;;;;;;;10.38;92.25;102109.63;5260543;28;20057;-69
2023/05/20 05:18:45;;;;;;;13.73;6.27;;;;;;;10.44;91.98;102111.41;5261582;28;20098;-68
2023/05/20 05:21:16;;;;;;;13.63;5.77;;;;;;;10.52;91.57;102114.94;5261658;28;20033;-68
2023/05/20 05:23:48;;;;;;;13.50;5.87;;;;;;;10.62;91.40;102110.69;5260341;28;20033;-68
2023/05/20 05:26:19;;;;;;;11.20;5.60;;;;;;;10.71;91.11;102116.00;5245827;28;20037;-68
2023/05/20 05:28:53;;;;;;;9.67;5.30;;;;;;;10.83;90.33;102115.19;5265260;28;20075;-68
2023/05/20 05:31:25;;;;;;;8.13;5.18;;;;;;;10.94;90.33;102115.28;5264988;28;20039;-68
2023/05/20 05:33:56;;;;;;;17.83;5.93;;;;;;;10.97;90.19;102117.91;5264955;28;20033;-69
2023/05/20 05:36:27;;;;;;;12.07;5.70;;;;;;;11.06;89.40;102122.31;5265256;28;20037;-69
2023/05/20 05:38:59;;;;;;;13.03;5.23;;;;;;;11.12;88.70;102114.53;5264992;28;20064;-68
2023/05/20 05:41:31;;;;;;;9.57;5.30;;;;;;;11.20;88.23;102118.06;5265001;28;20049;-68
2023/05/20 05:44:03;;;;;;;8.77;5.28;;;;;;;11.31;87.82;102108.53;5263647;28;20031;-68
2023/05/20 05:46:34;;;;;;;13.10;5.90;;;;;;;11.39;87.51;102111.22;5265171;28;20465;-67
2023/05/20 05:49:06;;;;;;;7.40;5.20;;;;;;;11.45;87.71;102099.94;5264750;28;20033;-68
2023/05/20 05:51:37;;;;;;;9.50;5.37;;;;;;;11.61;86.96;102103.50;5263107;28;20043;-70
2023/05/20 05:54:09;;;;;;;10.70;5.43;;;;;;;11.64;86.20;102108.69;5264852;28;20124;-68
2023/05/20 05:56:40;;;;;;;9.57;4.87;;;;;;;11.70;86.50;102111.34;5264712;28;20052;-68
2023/05/20 05:59:11;;;;;;;9.07;5.53;;;;;;;11.78;85.50;102108.75;5263531;28;20025;-68
2023/05/20 06:01:43;;;;;;;12.80;5.20;;;;;;;11.85;84.98;102115.75;5264429;28;20032;-68
2023/05/20 06:04:14;;;;;;;12.07;5.50;;;;;;;11.89;84.29;102107.06;5263361;28;20037;-68
2023/05/20 06:06:47;;;;;;;9.63;4.57;;;;;;;12.02;83.96;102113.22;5263412;28;20144;-69
2023/05/20 06:09:18;;;;;;;11.32;4.93;;;;;;;12.10;84.53;102110.63;5264611;28;20083;-69
2023/05/20 06:11:49;;;;;;;12.30;5.80;;;;;;;12.18;83.92;102111.50;5264499;28;20037;-69
2023/05/20 06:14:21;;;;;;;9.57;5.00;;;;;;;12.25;82.64;102110.63;5263075;28;20033;-68
2023/05/20 06:16:52;;;;;;;8.27;4.87;;;;;;;12.31;82.30;102105.41;5264392;28;20033;-70
2023/05/20 06:19:23;;;;;;;6.87;4.80;;;;;;;12.45;80.99;102101.97;5263812;28;20150;-68
2023/05/20 06:21:56;;;;;;;9.17;4.60;;;;;;;12.50;81.43;102097.59;5264405;28;20025;-68
2023/05/20 06:24:27;;;;;;;9.20;5.05;;;;;;;12.54;81.54;102099.34;5263825;28;20033;-67
2023/05/20 06:26:59;;;;;;;11.67;4.80;;;;;;;12.67;80.66;102098.47;5263957;28;20369;-69
2023/05/20 06:29:30;;;;;;;9.10;4.90;;;;;;;12.72;80.14;102098.47;5264253;28;20040;-68
2023/05/20 06:32:02;;;;;;;9.87;5.33;;;;;;;12.82;79.09;102092.34;5264232;28;20033;-68
2023/05/20 06:34:33;;;;;;;9.77;5.47;;;;;;;12.98;78.89;102093.22;5262918;28;20116;-68
2023/05/20 06:37:04;;;;;;;8.40;5.00;;;;;;;13.08;78.79;102094.91;5263716;28;20033;-68
2023/05/20 06:39:36;;;;;;;9.60;4.90;;;;;;;13.22;79.13;102088.78;5263964;28;20033;-67
2023/05/20 06:42:08;;;;;;;7.55;4.18;;;;;;;13.37;78.11;102086.13;5264053;28;20125;-69
2023/05/20 06:44:39;;;;;;;9.00;4.37;;;;;;;13.45;76.55;102086.13;5260146;28;20080;-70
2023/05/20 06:47:13;;;;;;;9.90;4.97;;;;;;;13.47;75.57;102090.47;5260451;28;20024;-68
2023/05/20 06:49:45;;;;;;;6.30;3.90;;;;;;;13.55;75.40;102084.34;5262241;28;20086;-70
2023/05/20 06:52:16;;;;;;;8.80;5.30;;;;;;;13.63;74.72;102079.94;5261908;28;20040;-67
2023/05/20 06:54:47;;;;;;;10.73;5.70;;;;;;;13.75;75.63;102077.25;5262360;28;20123;-68
2023/05/20 06:57:19;;;;;;;8.67;4.50;;;;;;;13.82;72.94;102068.47;5263226;28;20122;-68
2023/05/20 06:59:50;;;;;;;8.43;4.37;;;;;;;13.97;73.59;102075.34;5261054;28;20531;-69
2023/05/20 07:02:22;;;;;;;8.67;4.33;;;;;;;14.16;71.46;102077.88;5262850;28;20064;-67
2023/05/20 07:04:53;;;;;;;8.03;4.53;;;;;;;14.31;72.66;102062.03;5261783;28;20345;-68
2023/05/20 07:07:25;;;;;;;8.97;4.50;;;;;;;14.46;70.42;102070.63;5261377;28;20135;-68
2023/05/20 07:09:56;;;;;;;8.80;3.67;;;;;;;14.59;70.21;102075.81;5262391;28;20033;-67
2023/05/20 07:12:28;;;;;;;6.83;4.13;;;;;;;14.73;70.39;102074.78;5261509;28;20040;-69
2023/05/20 07:15:00;;;;;;;6.13;3.63;;;;;;;14.81;67.12;102072.09;5260281;28;20369;-69
2023/05/20 07:17:31;;;;;;;6.95;3.33;;;;;;;14.90;66.89;102069.41;5278554;28;20033;-68
2023/05/20 07:20:03;;;;;;;6.57;3.60;;;;;;;15.05;65.59;102070.97;5255146;28;20029;-67
2023/05/20 07:22:34;;;;;;;6.47;4.10;;;;;;;15.09;65.88;102057.81;5260165;28;20072;-68
2023/05/20 07:25:06;;;;;;;7.53;3.80;;;;;;;15.36;65.38;102065.38;5261163;28;20072;-68
2023/05/20 07:27:37;;;;;;;9.18;3.45;;;;;;;15.37;63.69;102057.47;5260765;28;20070;-69
2023/05/20 07:30:09;;;;;;;8.50;3.40;;;;;;;15.46;62.81;102053.88;5260969;28;20062;-68
2023/05/20 07:32:41;;;;;;;10.07;3.67;;;;;;;15.60;63.30;102061.56;5261745;28;20029;-69
2023/05/20 07:35:12;;;;;;;6.73;3.47;;;;;;;15.63;61.49;102046.63;5260412;28;20086;-68
2023/05/20 07:37:44;;;;;;;10.53;4.03;;;;;;;15.77;61.30;102053.50;5261783;28;20040;-69
2023/05/20 07:40:15;;;;;;;12.40;4.17;;;;;;;15.81;61.97;102040.28;5261366;28;20036;-69
2023/05/20 07:42:47;;;;;;;6.33;3.80;;;;;;;15.92;60.81;102053.25;5260221;28;20493;-67
2023/05/20 07:45:18;;;;;;;5.00;3.70;;;;;;;16.08;59.67;102051.25;5262383;28;20087;-68
2023/05/20 07:47:49;;;;;;;6.83;3.20;;;;;;;16.28;61.68;102047.47;5260571;28;20048;-67
2023/05/20 07:50:21;;;;;;;6.93;4.10;;;;;;;16.21;58.97;102041.41;5292336;28;20021;-68
2023/05/20 07:52:52;;;;;;;6.73;3.10;;;;;;;16.35;60.38;102035.94;5262698;28;20044;-68
2023/05/20 07:55:24;;;;;;;9.87;4.10;;;;;;;16.49;58.66;102044.47;5262644;28;20029;-68
2023/05/20 07:57:55;;;;;;;6.33;3.27;;;;;;;16.55;57.80;102040.84;5262619;28;20029;-68
2023/05/20 08:00:26;;;;;;;7.70;3.00;;;;;;;16.50;55.95;102042.69;5260988;28;20086;-67
2023/05/20 08:02:58;;;;;;;5.77;3.40;;;;;;;16.60;58.91;102046.91;5262574;28;20032;-69
2023/05/20 08:05:29;;;;;;;8.70;3.37;;;;;;;16.48;55.73;102033.97;5262659;28;20044;-69
2023/05/20 08:08:00;;;;;;;5.33;3.73;;;;;;;16.60;56.38;102033.75;5262616;28;20050;-69
2023/05/20 08:10:32;;;;;;;5.63;3.67;;;;;;;16.68;57.02;102041.47;5262070;28;20037;-67
2023/05/20 08:13:03;;;;;;;8.43;3.47;;;;;;;16.80;56.46;102033.38;5262505;28;20447;-68
2023/05/20 08:15:35;;;;;;;8.97;3.47;;;;;;;16.91;56.19;102031.44;5262435;28;20465;-68
2023/05/20 08:18:07;;;;;;;6.90;3.35;;;;;;;17.05;55.19;102022.38;5262313;28;20029;-68
2023/05/20 08:20:38;;;;;;;6.47;3.13;;;;;;;17.09;54.03;102026.69;5277355;28;20495;-68
2023/05/20 08:23:09;;;;;;;8.47;3.63;;;;;;;17.33;54.88;102029.75;5262233;28;20683;-68
2023/05/20 08:25:41;;;;;;;7.20;3.27;;;;;;;17.39;53.95;102027.84;5261988;28;20030;-68
2023/05/20 08:28:13;;;;;;;6.50;3.23;;;;;;;17.51;55.19;102029.31;5262393;28;20527;-69
2023/05/20 08:30:44;;;;;;;4.85;3.05;;;;;;;17.59;53.35;102018.63;5277727;28;20071;-68
2023/05/20 08:33:16;;;;;;;18.37;4.00;;;;;;;17.49;51.21;102017.94;5262670;28;20064;-68
2023/05/20 08:35:48;;;;;;;7.63;3.78;;;;;;;17.53;51.62;102014.31;5261931;28;20108;-67
2023/05/20 08:38:19;;;;;;;11.43;3.50;;;;;;;17.65;51.74;102013.22;5262490;28;20466;-67
2023/05/20 08:40:55;;;;;;;7.77;4.17;;;;;;;17.80;50.45;102019.88;5277005;28;20060;-69
2023/05/20 08:43:27;;;;;;;8.85;3.28;;;;;;;18.01;51.15;102010.63;5262314;28;20021;-67
2023/05/20 08:45:58;;;;;;;10.53;3.70;;;;;;;17.89;50.44;101995.09;5262075;28;20040;-67
2023/05/20 08:48:30;;;;;;;7.80;3.53;;;;;;;18.16;51.59;102015.53;5277527;28;20056;-68
2023/05/20 08:51:03;;;;;;;7.28;3.97;;;;;;;18.10;50.03;102006.91;5261696;28;20033;-67
2023/05/20 08:53:34;;;;;;;8.30;4.10;;;;;;;18.06;49.31;102011.38;5261873;28;20033;-67
2023/05/20 08:56:08;;;;;;;6.07;3.40;;;;;;;18.17;50.18;102004.06;5262352;28;20041;-68
2023/05/20 08:58:41;;;;;;;6.30;3.38;;;;;;;18.12;48.77;101998.03;5260589;28;20025;-70
2023/05/20 09:01:13;;;;;;;8.52;4.57;;;;;;;18.26;49.31;102010.91;5264053;28;20436;-69
2023/05/20 09:03:44;;;;;;;6.83;3.83;;;;;;;18.44;49.86;102000.78;5264647;28;20064;-68
2023/05/20 09:06:20;;;;;;;7.87;3.70;;;;;;;18.73;48.27;102005.25;5265965;28;20033;-67
2023/05/20 09:08:51;;;;;;;8.60;3.55;;;;;;;18.64;47.55;101993.16;5265786;28;20060;-68
2023/05/20 09:11:22;;;;;;;6.17;2.90;;;;;;;18.72;46.31;101996.47;5281347;28;20537;-68
2023/05/20 09:13:54;;;;;;;5.57;2.97;;;;;;;18.88;47.79;101989.00;5265444;28;20085;-68
2023/05/20 09:16:25;;;;;;;5.97;3.23;;;;;;;19.10;47.76;101985.75;5265731;28;20052;-68
2023/05/20 09:18:56;;;;;;;6.13;3.67;;;;;;;19.26;47.60;101981.72;5265247;28;20037;-68
2023/05/20 09:21:28;;;;;;;9.03;3.10;;;;;;;19.36;46.72;101984.09;5265400;28;20029;-68
2023/05/20 09:24:03;;;;;;;4.93;2.88;;;;;;;19.51;45.51;102018.00;5265449;28;20037;-68
2023/05/20 09:26:34;;;;;;;7.10;3.00;;;;;;;19.21;44.35;101977.50;5265531;28;20060;-67
2023/05/20 09:29:07;;;;;;;4.80;2.80;;;;;;;19.44;45.37;101988.22;5265475;28;20481;-68
2023/05/20 09:31:39;;;;;;;6.47;2.95;;;;;;;19.60;44.81;101987.78;5264387;28;20064;-69
2023/05/20 09:34:10;;;;;;;6.60;3.05;;;;;;;19.61;43.51;101974.50;5265403;28;20033;-69
2023/05/20 09:36:43;;;;;;;5.72;2.42;;;;;;;19.71;44.42;101983.00;5264201;28;20064;-68
2023/05/20 09:39:18;;;;;;;6.65;2.47;;;;;;;20.04;44.97;101973.13;5265274;28;20127;-69
2023/05/20 09:41:56;;;;;;;6.90;3.45;;;;;;;20.11;43.34;101986.13;5280496;28;20512;-69
2023/05/20 09:44:28;;;;;;;5.28;3.10;;;;;;;20.11;44.07;101991.44;5263921;28;20380;-68
2023/05/20 09:47:01;;;;;;;6.25;3.03;;;;;;;20.35;45.23;101972.06;5264736;28;20028;-68
2023/05/20 09:49:34;;;;;;;5.50;2.65;;;;;;;20.51;44.07;101982.09;5280708;28;20484;-68
2023/05/20 09:52:06;;;;;;;5.95;3.28;;;;;;;21.58;44.53;101982.56;5264577;28;20500;-68
2023/05/20 09:54:38;;;;;;;5.18;2.92;;;;;;;22.75;39.36;101982.09;5264929;28;20132;-68
2023/05/20 09:57:10;;;;;;;11.93;3.57;;;;;;;23.72;36.52;101982.03;5264546;28;20039;-68
2023/05/20 09:59:42;;;;;;;6.68;3.15;;;;;;;24.13;35.12;101984.44;5265124;28;20024;-69
2023/05/20 10:02:14;;;;;;;8.40;3.30;;;;;;;23.83;35.37;101961.94;5264295;28;20116;-69
2023/05/20 10:04:50;;;;;;;6.07;2.95;;;;;;;23.40;36.89;101979.13;5264279;28;20029;-69
2023/05/20 10:07:43;;;;;;;8.75;3.88;;;;;;;23.53;36.15;101974.94;5264617;28;20044;-67
2023/05/20 10:10:24;;;;;;;7.05;3.35;;;;;;;23.21;37.77;101964.03;5264597;28;20029;-68
2023/05/20 10:13:13;;;;;;;10.32;3.40;;;;;;;22.64;38.72;101963.13;5264122;28;20375;-67
2023/05/20 10:16:23;;;;;;;6.28;3.08;;;;;;;24.20;36.36;101961.88;5264741;28;20365;-68
2023/05/20 10:19:19;;;;;;;5.05;2.50;;;;;;;24.84;34.91;101952.31;5264565;28;20098;-67
2023/05/20 10:22:00;;;;;;;4.88;2.97;;;;;;;25.52;33.67;101951.22;5262761;28;20028;-67
2023/05/20 10:24:36;;;;;;;7.45;2.50;;;;;;;25.18;32.78;101947.75;5264528;28;20037;-68
2023/05/20 10:27:10;;;;;;;5.03;2.80;;;;;;;25.60;33.04;101953.41;5264507;28;20056;-69
2023/05/20 10:29:42;;;;;;;6.22;2.40;;;;;;;26.29;31.11;101948.50;5264130;28;20035;-68
2023/05/20 10:32:26;;;;;;;7.35;2.90;;;;;;;26.78;31.34;101950.84;5264248;28;20033;-69
2023/05/20 10:35:03;;;;;;;6.40;2.60;;;;;;;27.43;30.69;101941.34;5263835;28;20433;-68
2023/05/20 10:37:42;;;;;;;5.35;2.45;;;;;;;26.76;29.81;101934.03;5263907;28;20071;-68
2023/05/20 10:40:17;;;;;;;14.27;2.90;;;;;;;28.06;31.36;101930.94;5263619;28;20043;-67
2023/05/20 10:42:48;;;;;;;5.20;2.30;;;;;;;27.94;28.77;101928.13;5264131;28;20072;-69
2023/05/20 10:45:26;;;;;;;;;;;;;;;28.98;28.56;101927.13;5264254;28;20158;-67
2023/05/20 10:47:58;;;;;;;6.03;2.70;;;;;;;28.29;28.93;101919.47;5263912;28;20374;-69
2023/05/20 10:50:33;;;;;;;;;;;;;;;30.08;26.94;101937.78;5263703;28;20070;-68
2023/05/20 10:53:05;;;;;;;3.95;2.40;;;;;;;29.16;27.13;101924.91;5263828;28;20361;-68
2023/05/20 10:55:39;;;;;;;4.07;2.50;;;;;;;29.33;25.76;101920.97;5262279;28;20120;-70
2023/05/20 10:58:10;;;;;;;4.75;2.45;;;;;;;28.33;26.08;101929.00;5263665;28;20040;-67
2023/05/20 11:00:42;;;;;;;;;;;;;;;28.73;26.69;101904.72;5279379;28;20029;-68
2023/05/20 11:03:15;;;;;;;7.47;2.60;;;;;;;25.55;30.70;101926.13;5263283;28;19917;-68
2023/05/20 11:05:47;;;;;;;2.88;2.40;;;;;;;25.47;31.50;101913.22;5263444;28;20029;-68
2023/05/20 11:08:18;;;;;;;;;;;;;;;28.14;29.27;101908.00;5263920;28;20037;-68
2023/05/20 11:10:49;;;;;;;3.50;2.40;;;;;;;28.27;28.38;101899.97;5278774;28;20034;-67
2023/05/20 11:13:21;;;;;;;5.75;2.67;;;;;;;29.12;26.64;101904.63;5263464;28;20384;-68
2023/05/20 11:15:52;;;;;;;;;;;;;;;30.99;26.57;101901.00;5279137;28;20064;-69
2023/05/20 11:18:29;;;;;;;4.20;2.57;;;;;;;28.04;27.25;101890.81;5263122;28;19909;-68
2023/05/20 11:21:01;;;;;;;5.97;2.72;;;;;;;28.45;27.47;101902.28;5262796;28;20394;-67
2023/05/20 11:23:32;;;;;;;;;;;;;;;30.68;27.15;101909.69;5262546;28;20086;-68
2023/05/20 11:26:04;;;;;;;4.33;2.40;;;;;;;31.53;26.02;101897.41;5278570;28;20398;-68
2023/05/20 11:28:37;;;;;;;10.05;2.80;;;;;;;30.76;24.89;101894.78;5263047;28;20116;-67
2023/05/20 11:31:08;;;;;;;4.28;2.70;;;;;;;30.47;24.96;101890.75;5262712;28;20040;-68
2023/05/20 11:33:41;;;;;;;4.55;2.80;;;;;;;30.94;24.90;101878.94;5262999;28;20036;-69
2023/05/20 11:36:13;;;;;;;3.88;2.63;;;;;;;29.73;25.77;101890.25;5262607;28;20032;-67
2023/05/20 11:38:47;;;;;;;5.07;2.85;;;;;;;28.24;28.22;101884.09;5262937;28;20079;-68
2023/05/20 11:41:24;;;;;;;4.93;2.65;;;;;;;27.19;29.35;101882.22;5262715;28;20089;-68
2023/05/20 11:43:59;;;;;;;4.75;2.78;;;;;;;29.89;28.46;101896.19;5262776;28;20033;-68
2023/05/20 11:46:30;;;;;;;6.97;2.97;;;;;;;29.67;25.78;101879.97;5262835;28;20500;-68
2023/05/20 11:49:01;;;;;;;5.93;2.45;;;;;;;28.20;28.99;101883.41;5262568;28;20120;-67
2023/05/20 11:51:33;;;;;;;;;;;;;;;29.48;27.62;101894.81;5262859;28;20029;-67